createdAt,value
2018-07-04T00:01:09.509Z,98.50
2018-07-04T00:03:49.847Z,97.60
2018-07-04T00:06:30.189Z,97.80
2018-07-04T00:09:10.484Z,98.10
2018-07-04T00:11:51.508Z,98.20
2018-07-04T00:14:32.102Z,99.40
2018-07-04T00:17:12.421Z,99.10
2018-07-04T00:19:52.760Z,98.40
2018-07-04T00:22:33.167Z,99.00
2018-07-04T00:25:13.623Z,99.10
2018-07-04T00:27:53.874Z,99.20
2018-07-04T00:30:34.127Z,99.00
2018-07-04T00:33:14.603Z,99.50
2018-07-04T00:35:55.055Z,99.40
2018-07-04T00:38:36.425Z,99.30
2018-07-04T00:41:16.816Z,99.40
2018-07-04T00:43:57.163Z,99.80
2018-07-04T00:46:37.547Z,99.50
2018-07-04T00:49:17.843Z,99.50
2018-07-04T00:51:58.328Z,99.40
2018-07-04T00:54:38.884Z,99.30
2018-07-04T00:57:19.205Z,99.20
2018-07-04T00:59:59.720Z,99.40
2018-07-04T01:02:40.376Z,99.40
2018-07-04T01:05:20.788Z,99.90
2018-07-04T01:08:01.148Z,99.60
2018-07-04T01:10:41.585Z,99.60
2018-07-04T01:13:22.089Z,99.50
2018-07-04T01:16:02.584Z,99.80
2018-07-04T01:18:43.214Z,99.80
2018-07-04T01:21:23.675Z,99.70
2018-07-04T01:24:03.934Z,99.80
2018-07-04T01:26:44.187Z,99.60
2018-07-04T01:29:25.401Z,99.80
2018-07-04T01:32:06.091Z,99.90
2018-07-04T01:34:47.063Z,99.90
2018-07-04T01:37:27.370Z,99.90
2018-07-04T01:40:07.957Z,99.90
2018-07-04T01:42:48.431Z,99.80
2018-07-04T01:45:28.818Z,99.70
2018-07-04T01:48:09.195Z,99.90
2018-07-04T01:50:49.768Z,99.90
2018-07-04T01:53:30.136Z,99.90
2018-07-04T01:56:10.561Z,99.90
2018-07-04T01:58:50.954Z,99.90
2018-07-04T02:01:31.452Z,99.90
2018-07-04T02:04:11.846Z,99.90
2018-07-04T02:06:52.223Z,99.90
2018-07-04T02:09:32.548Z,99.90
2018-07-04T02:12:13.104Z,99.90
2018-07-04T02:14:53.404Z,99.90
2018-07-04T02:17:33.727Z,99.80
2018-07-04T02:20:14.148Z,99.90
2018-07-04T02:22:55.051Z,99.90
2018-07-04T02:25:35.591Z,99.90
2018-07-04T02:28:16.170Z,99.90
2018-07-04T02:30:56.617Z,99.90
2018-07-04T02:33:37.022Z,99.90
2018-07-04T02:36:17.303Z,99.90
2018-07-04T02:38:57.830Z,99.90
2018-07-04T02:44:12.674Z,99.90
2018-07-04T02:46:52.995Z,99.90
2018-07-04T02:49:33.359Z,99.90
2018-07-04T02:52:13.920Z,99.90
2018-07-04T02:54:54.345Z,99.90
2018-07-04T02:57:34.837Z,99.90
2018-07-04T03:00:15.251Z,99.90
2018-07-04T03:02:55.538Z,99.90
2018-07-04T03:05:35.951Z,99.90
2018-07-04T03:08:16.184Z,99.90
2018-07-04T03:10:56.696Z,99.90
2018-07-04T03:13:37.041Z,99.90
2018-07-04T03:16:17.680Z,99.90
2018-07-04T03:18:58.093Z,99.90
2018-07-04T03:21:38.619Z,99.90
2018-07-04T03:24:19.080Z,99.90
2018-07-04T03:26:59.391Z,99.90
2018-07-04T03:29:39.632Z,99.90
2018-07-04T03:32:19.929Z,99.90
2018-07-04T03:35:01.165Z,99.90
2018-07-04T03:37:41.525Z,99.90
2018-07-04T03:40:22.127Z,99.90
2018-07-04T03:43:02.683Z,99.90
2018-07-04T03:45:43.177Z,99.90
2018-07-04T03:48:23.599Z,99.90
2018-07-04T03:51:03.824Z,99.90
2018-07-04T03:53:44.296Z,99.90
2018-07-04T03:56:24.643Z,99.90
2018-07-04T03:59:05.099Z,99.90
2018-07-04T04:01:45.698Z,99.90
2018-07-04T04:04:26.060Z,99.90
2018-07-04T04:07:06.560Z,99.90
2018-07-04T04:09:46.985Z,99.90
2018-07-04T04:12:27.358Z,99.90
2018-07-04T04:15:07.668Z,99.90
2018-07-04T04:17:48.131Z,99.90
2018-07-04T04:20:28.599Z,99.90
2018-07-04T04:23:08.949Z,99.90
2018-07-04T04:25:49.341Z,99.90
2018-07-04T04:28:29.779Z,99.90
2018-07-04T04:31:10.194Z,99.90
2018-07-04T04:33:50.784Z,99.90
2018-07-04T04:36:31.187Z,99.90
2018-07-04T04:39:11.521Z,99.80
2018-07-04T04:41:51.856Z,99.70
2018-07-04T04:44:32.363Z,99.60
2018-07-04T04:47:12.689Z,99.40
2018-07-04T04:49:53.509Z,99.50
2018-07-04T04:52:33.864Z,99.40
2018-07-04T04:55:14.578Z,99.50
2018-07-04T04:57:54.852Z,99.50
2018-07-04T05:03:09.843Z,99.40
2018-07-04T05:05:50.320Z,99.40
2018-07-04T05:08:30.962Z,99.40
2018-07-04T05:11:11.470Z,99.50
2018-07-04T05:13:52.056Z,99.30
2018-07-04T05:16:32.548Z,99.30
2018-07-04T05:19:12.959Z,99.30
2018-07-04T05:21:54.200Z,99.20
2018-07-04T05:24:34.695Z,98.90
2018-07-04T05:27:14.953Z,98.70
2018-07-04T05:29:55.410Z,99.00
2018-07-04T05:32:36.051Z,98.80
2018-07-04T05:35:16.440Z,98.60
2018-07-04T05:37:56.938Z,98.60
2018-07-04T05:40:37.402Z,98.20
2018-07-04T05:43:18.143Z,98.10
2018-07-04T05:45:58.410Z,97.60
2018-07-04T05:48:38.785Z,97.40
2018-07-04T05:51:19.236Z,97.20
2018-07-04T05:53:59.583Z,96.00
2018-07-04T05:56:40.145Z,96.30
2018-07-04T05:59:20.569Z,96.50
2018-07-04T06:02:00.926Z,96.90
2018-07-04T06:04:41.370Z,96.60
2018-07-04T06:07:21.869Z,96.50
2018-07-04T06:10:02.232Z,95.40
2018-07-04T06:12:42.760Z,95.60
2018-07-04T06:15:23.058Z,95.40
2018-07-04T06:18:03.509Z,94.90
2018-07-04T06:20:43.950Z,95.00
2018-07-04T06:23:24.244Z,94.50
2018-07-04T06:26:04.696Z,94.20
2018-07-04T06:28:45.025Z,93.90
2018-07-04T06:31:25.535Z,92.70
2018-07-04T06:34:06.017Z,92.30
2018-07-04T06:36:46.394Z,91.60
2018-07-04T06:39:14.526Z,91.60
2018-07-04T06:41:42.481Z,91.70
2018-07-04T06:44:10.472Z,88.50
2018-07-04T06:46:38.459Z,91.20
2018-07-04T06:49:06.548Z,86.70
2018-07-04T06:51:34.527Z,84.00
2018-07-04T06:54:02.563Z,87.10
2018-07-04T06:56:30.552Z,88.40
2018-07-04T06:58:58.547Z,85.80
2018-07-04T07:01:26.568Z,87.50
2018-07-04T07:04:06.992Z,88.50
2018-07-04T07:06:47.437Z,87.80
2018-07-04T07:09:27.923Z,84.00
2018-07-04T07:12:10.203Z,85.80
2018-07-04T07:14:50.817Z,87.00
2018-07-04T07:17:31.172Z,85.00
2018-07-04T07:20:11.525Z,86.30
2018-07-04T07:22:52.081Z,83.80
2018-07-04T07:25:32.721Z,84.40
2018-07-04T07:28:13.105Z,84.20
2018-07-04T07:30:53.430Z,82.90
2018-07-04T07:33:33.925Z,81.90
2018-07-04T07:36:14.210Z,80.70
2018-07-04T07:38:54.905Z,81.00
2018-07-04T07:41:35.325Z,81.50
2018-07-04T07:44:16.216Z,80.70
2018-07-04T07:46:56.623Z,76.70
2018-07-04T07:49:37.262Z,75.70
2018-07-04T07:52:17.636Z,75.90
2018-07-04T07:54:58.070Z,75.80
2018-07-04T07:57:38.528Z,72.70
2018-07-04T08:00:19.009Z,71.80
2018-07-04T08:02:59.392Z,74.90
2018-07-04T08:05:39.783Z,77.50
2018-07-04T08:08:20.136Z,74.70
2018-07-04T08:11:00.483Z,76.70
2018-07-04T08:13:40.814Z,76.10
2018-07-04T08:16:21.083Z,80.30
2018-07-04T08:19:01.498Z,76.90
2018-07-04T08:21:41.842Z,76.20
2018-07-04T08:24:22.301Z,74.80
2018-07-04T08:27:02.715Z,75.00
2018-07-04T08:29:43.096Z,78.00
2018-07-04T08:32:23.600Z,72.40
2018-07-04T08:35:04.743Z,75.40
2018-07-04T08:37:45.445Z,73.40
2018-07-04T08:40:25.731Z,72.00
2018-07-04T08:43:06.276Z,70.90
2018-07-04T08:45:46.702Z,73.70
2018-07-04T08:48:27.154Z,73.00
2018-07-04T08:51:07.557Z,72.60
2018-07-04T08:53:48.063Z,70.60
2018-07-04T08:56:28.618Z,73.80
2018-07-04T08:59:09.030Z,73.30
2018-07-04T09:01:49.356Z,74.40
2018-07-04T09:04:29.733Z,73.60
2018-07-04T09:07:10.068Z,74.60
2018-07-04T09:09:50.434Z,73.70
2018-07-04T09:12:30.735Z,69.40
2018-07-04T09:15:11.104Z,69.10
2018-07-04T09:17:51.536Z,67.00
2018-07-04T09:20:31.951Z,68.50
2018-07-04T09:23:12.232Z,76.30
2018-07-04T09:25:52.619Z,73.80
2018-07-04T09:28:32.868Z,70.40
2018-07-04T09:31:13.322Z,70.20
2018-07-04T09:33:53.855Z,65.20
2018-07-04T09:36:34.278Z,64.40
2018-07-04T09:39:14.588Z,66.00
2018-07-04T09:41:55.023Z,66.70
2018-07-04T09:44:35.481Z,63.90
2018-07-04T09:47:15.841Z,62.10
2018-07-04T09:49:56.366Z,65.90
2018-07-04T09:52:36.760Z,71.30
2018-07-04T09:55:17.106Z,71.10
2018-07-04T09:57:57.532Z,70.90
2018-07-04T10:00:42.222Z,67.10
2018-07-04T10:03:22.770Z,69.90
2018-07-04T10:06:03.271Z,65.30
2018-07-04T10:08:43.734Z,68.00
2018-07-04T10:11:24.204Z,65.70
2018-07-04T10:14:04.836Z,67.60
2018-07-04T10:16:45.192Z,67.40
2018-07-04T10:19:26.040Z,69.80
2018-07-04T10:22:06.510Z,68.00
2018-07-04T10:24:47.151Z,66.40
2018-07-04T10:27:27.791Z,68.80
2018-07-04T10:30:08.093Z,74.80
2018-07-04T10:32:48.422Z,71.90
2018-07-04T10:35:28.789Z,70.50
2018-07-04T10:38:09.313Z,67.90
2018-07-04T10:40:49.657Z,66.70
2018-07-04T10:43:30.632Z,66.50
2018-07-04T10:46:11.000Z,64.30
2018-07-04T10:48:51.389Z,63.60
2018-07-04T10:51:31.853Z,64.40
2018-07-04T10:54:12.182Z,68.30
2018-07-04T10:56:52.603Z,68.10
2018-07-04T10:59:33.154Z,66.30
2018-07-04T11:02:13.662Z,62.40
2018-07-04T11:04:54.193Z,68.30
2018-07-04T11:07:35.116Z,69.60
2018-07-04T11:10:15.517Z,66.50
2018-07-04T11:12:55.822Z,67.80
2018-07-04T11:15:36.362Z,69.30
2018-07-04T11:18:16.774Z,66.80
2018-07-04T11:20:57.165Z,67.40
2018-07-04T11:23:37.521Z,66.90
2018-07-04T11:26:17.992Z,71.60
2018-07-04T11:28:58.456Z,66.30
2018-07-04T11:31:38.778Z,69.80
2018-07-04T11:34:19.164Z,65.40
2018-07-04T11:36:59.417Z,68.20
2018-07-04T11:39:40.116Z,66.80
2018-07-04T11:42:20.539Z,64.90
2018-07-04T11:45:00.821Z,70.40
2018-07-04T11:47:28.810Z,69.00
2018-07-04T11:49:56.831Z,67.50
2018-07-04T11:52:24.877Z,65.30
2018-07-04T11:54:53.023Z,63.30
2018-07-04T11:57:21.024Z,63.10
2018-07-04T11:59:49.756Z,62.10
2018-07-04T12:02:17.801Z,63.00
2018-07-04T12:04:58.140Z,63.70
2018-07-04T12:07:26.120Z,65.30
2018-07-04T12:09:54.158Z,63.60
2018-07-04T12:12:22.161Z,64.20
2018-07-04T12:14:50.138Z,62.70
2018-07-04T12:17:18.181Z,64.20
2018-07-04T12:19:46.287Z,61.90
2018-07-04T12:22:14.269Z,63.80
2018-07-04T12:24:42.265Z,63.80
2018-07-04T12:27:10.228Z,63.90
2018-07-04T12:29:38.288Z,67.20
2018-07-04T12:32:06.349Z,62.50
2018-07-04T12:34:34.311Z,64.20
2018-07-04T12:37:02.276Z,65.90
2018-07-04T12:39:30.256Z,64.50
2018-07-04T12:41:58.265Z,62.80
2018-07-04T12:44:26.254Z,66.00
2018-07-04T12:46:54.417Z,60.30
2018-07-04T12:49:25.366Z,63.00
2018-07-04T12:51:53.699Z,61.10
2018-07-04T12:57:07.839Z,63.20
2018-07-04T12:59:48.222Z,62.10
2018-07-04T13:02:28.540Z,64.80
2018-07-04T13:05:08.921Z,66.50
2018-07-04T13:07:49.317Z,60.60
2018-07-04T13:10:29.978Z,61.70
2018-07-04T13:13:10.180Z,63.90
2018-07-04T13:15:57.889Z,64.60
2018-07-04T13:18:38.519Z,63.00
2018-07-04T13:21:18.863Z,63.00
2018-07-04T13:23:59.203Z,61.60
2018-07-04T13:26:39.667Z,63.00
2018-07-04T13:29:20.164Z,61.40
2018-07-04T13:32:00.704Z,60.00
2018-07-04T13:34:41.131Z,62.70
2018-07-04T13:37:21.474Z,59.30
2018-07-04T13:40:01.976Z,61.70
2018-07-04T13:42:42.398Z,62.40
2018-07-04T13:45:22.907Z,60.50
2018-07-04T13:48:03.354Z,60.50
2018-07-04T13:50:43.862Z,62.10
2018-07-04T13:53:24.234Z,63.80
2018-07-04T13:56:05.259Z,63.80
2018-07-04T13:58:45.950Z,62.60
2018-07-04T14:01:26.500Z,59.00
2018-07-04T14:04:06.897Z,62.80
2018-07-04T14:06:47.135Z,60.00
2018-07-04T14:09:27.605Z,64.00
2018-07-04T14:12:10.726Z,63.20
2018-07-04T14:14:51.142Z,61.70
2018-07-04T14:17:31.578Z,60.10
2018-07-04T14:20:12.159Z,64.80
2018-07-04T14:22:52.558Z,62.00
2018-07-04T14:25:33.097Z,62.80
2018-07-04T14:28:13.690Z,62.50
2018-07-04T14:30:54.066Z,62.00
2018-07-04T14:33:34.417Z,63.10
2018-07-04T14:36:15.180Z,62.90
2018-07-04T14:38:55.614Z,61.70
2018-07-04T14:41:35.924Z,65.20
2018-07-04T14:44:16.377Z,65.10
2018-07-04T14:46:56.831Z,61.10
2018-07-04T14:49:37.225Z,62.60
2018-07-04T14:52:17.665Z,61.90
2018-07-04T14:54:58.050Z,65.10
2018-07-04T14:57:38.437Z,61.40
2018-07-04T15:00:19.505Z,62.70
2018-07-04T15:02:59.795Z,63.40
2018-07-04T15:05:40.063Z,62.40
2018-07-04T15:08:20.388Z,62.30
2018-07-04T15:13:35.072Z,63.50
2018-07-04T15:16:15.264Z,65.50
2018-07-04T15:18:57.163Z,62.70
2018-07-04T15:21:37.507Z,62.30
2018-07-04T15:24:18.000Z,62.20
2018-07-04T15:26:58.302Z,62.90
2018-07-04T15:32:12.819Z,60.90
2018-07-04T15:34:53.202Z,63.50
2018-07-04T15:37:33.821Z,61.90
2018-07-04T15:40:14.325Z,61.10
2018-07-04T15:42:54.754Z,62.00
2018-07-04T15:45:35.277Z,61.30
2018-07-04T15:48:15.638Z,63.30
2018-07-04T15:50:56.272Z,63.80
2018-07-04T15:53:36.632Z,62.80
2018-07-04T15:56:16.861Z,64.40
2018-07-04T15:58:58.120Z,65.80
2018-07-04T16:01:38.491Z,64.50
2018-07-04T16:06:53.311Z,65.60
2018-07-04T16:09:33.702Z,65.30
2018-07-04T16:12:14.347Z,66.50
2018-07-04T16:14:54.841Z,64.50
2018-07-04T16:17:35.391Z,64.40
2018-07-04T16:20:15.824Z,65.40
2018-07-04T16:22:56.447Z,65.60
2018-07-04T16:25:36.807Z,64.70
2018-07-04T16:28:17.267Z,65.50
2018-07-04T16:30:57.529Z,65.50
2018-07-04T16:33:37.932Z,66.20
2018-07-04T16:36:18.223Z,66.70
2018-07-04T16:38:58.722Z,66.70
2018-07-04T16:41:38.971Z,67.10
2018-07-04T16:44:19.508Z,68.00
2018-07-04T16:46:59.872Z,68.00
2018-07-04T16:49:40.200Z,67.20
2018-07-04T16:52:21.231Z,67.50
2018-07-04T17:00:10.838Z,67.70
2018-07-04T17:05:25.771Z,68.50
2018-07-04T17:08:06.156Z,67.80
2018-07-04T17:10:46.748Z,69.90
2018-07-04T17:13:26.995Z,70.60
2018-07-04T17:16:07.391Z,70.20
2018-07-04T17:18:47.773Z,71.80
2018-07-04T17:21:28.088Z,72.40
2018-07-04T17:24:08.382Z,72.40
2018-07-04T17:26:48.664Z,73.90
2018-07-04T17:29:28.948Z,74.80
2018-07-04T17:32:09.231Z,77.10
2018-07-04T17:34:49.662Z,78.20
2018-07-04T17:37:30.046Z,79.10
2018-07-04T17:40:10.358Z,78.30
2018-07-04T17:42:50.891Z,80.70
2018-07-04T17:45:31.379Z,81.70
2018-07-04T17:48:12.260Z,80.90
2018-07-04T17:50:52.598Z,82.30
2018-07-04T17:53:32.997Z,84.40
2018-07-04T17:58:47.617Z,83.70
2018-07-04T18:01:28.082Z,84.00
2018-07-04T18:04:08.516Z,84.00
2018-07-04T18:06:48.990Z,84.40
2018-07-04T18:09:29.199Z,85.20
2018-07-04T18:12:10.580Z,86.30
2018-07-04T18:14:51.764Z,86.00
2018-07-04T18:17:32.035Z,86.20
2018-07-04T18:20:12.449Z,84.60
2018-07-04T18:22:52.801Z,83.40
2018-07-04T18:25:35.200Z,83.50
2018-07-04T18:28:15.575Z,84.70
2018-07-04T18:30:55.892Z,84.70
2018-07-04T18:33:36.332Z,82.70
2018-07-04T18:36:16.720Z,80.10
2018-07-04T18:38:56.990Z,78.90
2018-07-04T18:41:37.458Z,78.90
2018-07-04T18:44:18.182Z,79.40
2018-07-04T18:46:58.481Z,81.60
2018-07-04T18:49:38.730Z,82.20
2018-07-04T18:52:19.126Z,82.80
2018-07-04T18:54:59.668Z,83.90
2018-07-04T18:57:39.988Z,85.00
2018-07-04T19:00:20.220Z,85.90
2018-07-04T19:03:00.531Z,87.60
2018-07-04T19:05:40.850Z,88.50
2018-07-04T19:08:21.235Z,88.10
2018-07-04T19:11:01.614Z,87.50
2018-07-04T19:13:42.016Z,88.80
2018-07-04T19:16:22.402Z,90.10
2018-07-04T19:19:02.700Z,90.50
2018-07-04T19:21:43.165Z,90.80
2018-07-04T19:24:23.604Z,91.00
2018-07-04T19:27:03.917Z,91.40
2018-07-04T19:29:44.196Z,91.60
2018-07-04T19:32:24.586Z,91.30
2018-07-04T19:35:05.357Z,91.70
2018-07-04T19:37:45.917Z,92.10
2018-07-04T19:40:26.098Z,92.30
2018-07-04T19:43:06.481Z,92.50
2018-07-04T19:48:21.488Z,92.80
2018-07-04T19:51:01.813Z,92.70
2018-07-04T19:56:16.448Z,92.60
2018-07-04T19:58:56.688Z,92.70
2018-07-04T20:01:37.134Z,92.80
2018-07-04T20:04:17.388Z,92.60
2018-07-04T20:06:57.641Z,92.70
2018-07-04T20:09:37.895Z,92.70
2018-07-04T20:15:05.017Z,92.90
2018-07-04T20:17:45.457Z,92.90
2018-07-04T20:20:26.020Z,93.00
2018-07-04T20:23:06.311Z,93.30
2018-07-04T20:25:46.789Z,93.50
2018-07-04T20:28:27.148Z,93.70
2018-07-04T20:31:07.561Z,94.10
2018-07-04T20:33:47.894Z,94.00
2018-07-04T20:36:28.191Z,94.30
2018-07-04T20:39:08.730Z,94.40
2018-07-04T20:41:49.696Z,94.40
2018-07-04T20:44:30.240Z,94.20
2018-07-04T20:47:10.578Z,94.30
2018-07-04T20:49:50.841Z,94.10
2018-07-04T20:52:31.144Z,93.80
2018-07-04T20:55:11.650Z,93.90
2018-07-04T20:57:51.926Z,94.00
2018-07-04T21:03:06.635Z,94.30
2018-07-04T21:05:46.995Z,94.50
2018-07-04T21:08:27.426Z,94.50
2018-07-04T21:11:07.755Z,94.80
2018-07-04T21:13:48.092Z,94.80
2018-07-04T21:16:29.277Z,94.80
2018-07-04T21:19:09.604Z,94.70
2018-07-04T21:21:49.925Z,94.80
2018-07-04T21:24:30.476Z,94.90
2018-07-04T21:27:10.826Z,95.00
2018-07-04T21:29:51.403Z,94.90
2018-07-04T21:32:31.636Z,94.80
2018-07-04T21:35:11.917Z,95.20
2018-07-04T21:37:52.172Z,95.30
2018-07-04T21:40:32.567Z,95.30
2018-07-04T21:43:13.034Z,95.10
2018-07-04T21:45:53.611Z,95.40
2018-07-04T21:48:33.991Z,95.40
2018-07-04T21:51:14.376Z,95.80
2018-07-04T21:53:54.812Z,95.90
2018-07-04T21:56:35.303Z,96.00
2018-07-04T21:59:16.284Z,96.20
2018-07-04T22:01:56.681Z,96.50
2018-07-04T22:04:36.940Z,96.50
2018-07-04T22:07:17.208Z,96.50
2018-07-04T22:09:57.648Z,96.50
2018-07-04T22:12:37.912Z,96.70
2018-07-04T22:15:18.417Z,96.40
2018-07-04T22:17:58.879Z,96.40
2018-07-04T22:20:39.304Z,96.40
2018-07-04T22:23:19.628Z,96.70
2018-07-04T22:25:59.942Z,96.60
2018-07-04T22:28:40.426Z,96.60
2018-07-04T22:31:20.799Z,96.70
2018-07-04T22:34:01.070Z,96.40
2018-07-04T22:36:41.594Z,96.60
2018-07-04T22:39:22.050Z,96.60
2018-07-04T22:42:02.472Z,96.50
2018-07-04T22:44:43.077Z,96.90
2018-07-04T22:47:23.447Z,97.50
2018-07-04T22:50:04.354Z,97.30
2018-07-04T22:52:44.925Z,97.80
2018-07-04T22:55:25.339Z,97.90
2018-07-04T22:58:05.837Z,98.00
2018-07-04T23:00:46.339Z,98.20
2018-07-04T23:03:26.981Z,98.60
2018-07-04T23:06:08.222Z,98.80
2018-07-04T23:08:48.607Z,98.80
2018-07-04T23:11:29.136Z,99.10
2018-07-04T23:14:09.612Z,98.60
2018-07-04T23:16:50.030Z,98.60
2018-07-04T23:19:30.728Z,98.70
2018-07-04T23:22:11.180Z,98.50
2018-07-04T23:24:51.553Z,98.50
2018-07-04T23:27:32.184Z,98.50
2018-07-04T23:30:13.260Z,98.40
2018-07-04T23:32:53.588Z,98.50
2018-07-04T23:35:33.988Z,98.50
2018-07-04T23:38:14.371Z,98.70
2018-07-04T23:40:54.723Z,98.80
2018-07-04T23:43:35.066Z,98.60
2018-07-04T23:46:15.474Z,98.80
2018-07-04T23:48:56.021Z,98.90
2018-07-04T23:51:36.378Z,99.00
2018-07-04T23:54:16.709Z,99.00
2018-07-04T23:56:57.038Z,99.00
2018-07-04T23:59:37.392Z,98.90
